Minneapolis, MN (55401)

11:06 AM CDT on June 25, 2017 (GMT -0500)
RBC Plaza Weather | | Change Station

Elev 853 ft 44.98 °N, 93.27 °W | Updated 21 seconds ago

Overcast
Overcast
55.7 °F
Feels Like 55.7 °F
N
8.0
Wind Variable Wind from South
Gusts 19.0 mph

Today
High -- | Low -- °F
--% Chance of Precip.
Yesterday
High -- | Low -- °F
Precip. -- in
Pressure 30.14 in
Visibility 10.0 miles
Clouds Overcast 2300 ft
Dew Point 50 °F
Humidity 81%
Rainfall 0.00 in
Snow Depth Not available.
5:27 AM 9:03 PM
Waxing Crescent, 4% visible
METAR KMIC 251553Z 30017G23KT 10SM OVC023 14/08 A3013 RMK AO2 SLP206 T01440078
Pressure 30.14 in
Visibility 10.0 miles
Clouds Overcast 2300 ft
Dew Point 50 °F
Humidity 81%
Rainfall 0.00 in
Snow Depth Not available.
5:27 AM 9:03 PM
Waxing Crescent, 4% visible
METAR KMIC 251553Z 30017G23KT 10SM OVC023 14/08 A3013 RMK AO2 SLP206 T01440078

Get Severe Weather Alerts

Thanks for signing up!

Be on the lookout for a verification email in your inbox.

You'll start receiving the daily forecast at 6 AM.

×

10-Day Weather Forecast

Almanac

Astronomy

Jun. 25, 2017 Rise Set
Actual Time
Civil Twilight
Nautical Twilight
Astronomical Twilight
Moon
Length of Visible Light
Length of Day
Tomorrow will be .
, % of the Moon is Illuminated

Today's Extremes

State Highs State Lows

Community

WunderPhotos

Category 6

Welcome to Category 6. This is the collective home for Weather Underground's featured writeups by Dr. Jeff Masters (right), Bob Henson (left), Chris Burt, and other regular contributors.

Nearby

Air Quality

  Air Quality AQ Index Pollutant
Not available.

Snow Depth

Station Depth Elevation

Earthquake Activity

City Distance Mag. Time & Date
Minimum magnitude displayed is 2.5.

Coastal Water Temperatures

Place Temperature

Stations

Nearby Weather Stations

Station Location Temp. Windchill Dew Point Humidity Wind Precip. Elev Updated Type
                   

Watches & Warnings

There are currently no watches in effect.